New Hampton, NH

12:42 PM EDT on October 24, 2014 (GMT -0400)
Laconia Municipal | Change Station
CLOSE
Current Station
Airport
Location: Laconia,
Elevation: 545 ft
Nearby Weather Stations

Elev 545 ft 43.57 °N, 71.42 °W | Updated 7 minutes ago

Rain
Rain
48 °F
Feels Like 48 °F
N
4
Wind Variable Wind from West

Today
High -- | Low -- °F
--% Chance of Precip.
Yesterday
High -- | Low -- °F
Precip. -- in
7:11 AM 5:48 PM
New Moon, 1% visible
Pressure 29.70 in
Visibility 10.0 miles
Clouds Overcast 2400 ft
Dew Point 45 °F
Humidity 87%
Rainfall 0.00 in
Snow Depth Not available.
UV 1 out of 12
Pollen .10 out of 12
Air Quality Not available.
Flu Activity Local Activity
METAR KLCI 241635Z AUTO 28003KT 10SM OVC024 09/07 A2970 RMK AO1

More Conditions Fewer Conditions

Pressure 29.70 in
Visibility 10.0 miles
Clouds Overcast 2400 ft
Dew Point 45 °F
Humidity 87%
Rainfall 0.00 in
Snow Depth Not available.
UV 1 out of 12
Pollen .10 out of 12
Air Quality Not available.
Flu Activity Local Activity
METAR KLCI 241635Z AUTO 28003KT 10SM OVC024 09/07 A2970 RMK AO1

More Conditions Fewer Conditions

10-Day Weather Forecast

Almanac

Astronomy

Oct. 24, 2014 Rise Set
Actual Time 7:11 AM EDT 5:48 PM EDT
Civil Twilight 6:41 AM EDT 6:17 PM EDT
Nautical Twilight 6:08 AM EDT 6:50 PM EDT
Astronomical Twilight 5:35 AM EDT 7:24 PM EDT
Moon 7:48 AM EDT 6:24 PM EDT
Length of Visible Light 11h 35m
Length of Day
10h 36m
Tomorrow will be 2m 46s shorter.
New Moon, 1% of the Moon is Illuminated
Today
New Moon
Oct 30
First Quarter
Nov 6
Full
Nov 14
Last Quarter
Nov 22
New

Today's Extremes

State Highs State Lows

Community

WunderPhotos

Upload Photos

1,764,609 photos uploaded!

WunderBlogs® & News

By Dr. Jeff Masters
Director of Meteorology, Weather Underground
By Kari Strenfel
Meteorologist, Weather Underground
By Christopher C. Burt
Weather Historian, Weather Underground
October 24, 2014
October 24, 2014
October 24, 2014

Nearby

Air Quality

  Air Quality AQ Index Pollutant
Friday Good
PM2.5
Friday Good
OZONE

Snow Depth

Station Depth Elevation
No new snow has been reported.

Earthquake Activity

City Distance Mag. Time & Date
No recent earthquake activity has been reported nearby.
Minimum magnitude displayed is 2.5.

Coastal Water Temperatures

Place Temperature
No Stations Reporting

Nearby Weather Stations